createdAt,value
2023-03-29T00:00:13.030Z,6.80
2023-03-29T00:02:41.623Z,6.50
2023-03-29T00:05:12.392Z,6.40
2023-03-29T00:07:42.573Z,6.20
2023-03-29T00:10:13.229Z,6.10
2023-03-29T00:12:42.071Z,6.00
2023-03-29T00:15:11.109Z,5.80
2023-03-29T00:17:39.212Z,5.80
2023-03-29T00:20:10.296Z,5.80
2023-03-29T00:22:39.861Z,5.90
2023-03-29T00:25:10.534Z,5.90
2023-03-29T00:27:39.218Z,5.90
2023-03-29T00:30:10.190Z,5.80
2023-03-29T00:32:38.450Z,5.90
2023-03-29T00:35:07.525Z,5.90
2023-03-29T00:37:35.839Z,5.90
2023-03-29T00:40:07.775Z,5.80
2023-03-29T00:42:37.283Z,6.00
2023-03-29T00:45:17.432Z,6.30
2023-03-29T00:47:48.361Z,6.30
2023-03-29T00:50:22.220Z,6.40
2023-03-29T00:52:55.508Z,6.00
2023-03-29T00:55:26.030Z,6.00
2023-03-29T00:57:58.678Z,6.00
2023-03-29T01:00:32.388Z,5.90
2023-03-29T01:03:02.694Z,5.70
2023-03-29T01:05:35.355Z,5.50
2023-03-29T01:08:06.988Z,5.50
2023-03-29T01:10:40.220Z,5.60
2023-03-29T01:13:12.987Z,5.50
2023-03-29T01:15:45.170Z,5.50
2023-03-29T01:18:13.985Z,5.60
2023-03-29T01:20:55.506Z,5.60
2023-03-29T01:23:38.866Z,5.60
2023-03-29T01:26:19.736Z,5.50
2023-03-29T01:28:54.219Z,5.50
2023-03-29T01:31:25.625Z,5.50
2023-03-29T01:34:01.090Z,5.50
2023-03-29T01:36:37.182Z,5.50
2023-03-29T01:39:07.747Z,5.50
2023-03-29T01:41:44.017Z,5.60
2023-03-29T01:44:19.014Z,5.60
2023-03-29T01:46:48.425Z,5.70
2023-03-29T01:49:25.015Z,5.70
2023-03-29T01:51:57.986Z,5.80
2023-03-29T01:54:29.883Z,5.90
2023-03-29T01:56:59.359Z,6.00
2023-03-29T01:59:32.364Z,5.90
2023-03-29T02:02:03.436Z,5.70
2023-03-29T02:04:35.444Z,5.60
2023-03-29T02:07:06.185Z,5.60
2023-03-29T02:09:36.348Z,5.80
2023-03-29T02:12:07.313Z,5.80
2023-03-29T02:14:36.752Z,5.90
2023-03-29T02:17:18.652Z,5.90
2023-03-29T02:19:51.265Z,6.10
2023-03-29T02:22:24.813Z,6.30
2023-03-29T02:24:59.324Z,6.40
2023-03-29T02:27:29.176Z,6.20
2023-03-29T02:29:59.099Z,6.00
2023-03-29T02:32:33.198Z,6.00
2023-03-29T02:35:06.678Z,5.90
2023-03-29T02:37:40.583Z,5.90
2023-03-29T02:40:12.569Z,5.90
2023-03-29T02:42:41.821Z,5.80
2023-03-29T02:45:14.668Z,6.00
2023-03-29T02:47:46.769Z,6.20
2023-03-29T02:50:15.045Z,6.40
2023-03-29T02:52:49.766Z,6.60
2023-03-29T02:55:20.318Z,6.60
2023-03-29T02:57:48.258Z,6.70
2023-03-29T03:00:19.894Z,6.90
2023-03-29T03:02:48.956Z,6.90
2023-03-29T03:05:17.595Z,6.90
2023-03-29T03:07:46.396Z,6.90
2023-03-29T03:10:14.353Z,7.00
2023-03-29T03:12:42.308Z,7.00
2023-03-29T03:15:11.008Z,6.90
2023-03-29T03:17:40.376Z,6.90
2023-03-29T03:20:13.048Z,6.90
2023-03-29T03:22:42.448Z,6.80
2023-03-29T03:25:15.274Z,7.00
2023-03-29T03:27:43.760Z,7.10
2023-03-29T03:30:12.604Z,7.20
2023-03-29T03:32:43.626Z,7.10
2023-03-29T03:35:12.699Z,7.10
2023-03-29T03:37:41.566Z,7.20
2023-03-29T03:40:13.623Z,7.10
2023-03-29T03:42:42.297Z,7.20
2023-03-29T03:45:11.104Z,7.30
2023-03-29T03:47:39.545Z,7.40
2023-03-29T03:50:10.349Z,7.40
2023-03-29T03:52:38.328Z,7.30
2023-03-29T03:55:06.906Z,7.20
2023-03-29T03:57:37.501Z,7.10
2023-03-29T04:00:19.243Z,6.90
2023-03-29T04:02:48.909Z,6.90
2023-03-29T04:05:20.003Z,6.80
2023-03-29T04:07:48.874Z,6.80
2023-03-29T04:10:17.172Z,6.80
2023-03-29T04:12:45.256Z,6.90
2023-03-29T04:15:13.288Z,6.90
2023-03-29T04:17:41.401Z,6.80
2023-03-29T04:20:12.468Z,6.80
2023-03-29T04:22:42.231Z,6.70
2023-03-29T04:25:11.813Z,6.80
2023-03-29T04:27:40.014Z,6.80
2023-03-29T04:30:09.603Z,6.60
2023-03-29T04:32:37.748Z,6.50
2023-03-29T04:35:06.767Z,6.50
2023-03-29T04:37:35.086Z,6.50
2023-03-29T04:40:05.203Z,6.50
2023-03-29T04:42:34.267Z,6.30
2023-03-29T04:45:02.397Z,6.30
2023-03-29T04:47:31.298Z,6.30
2023-03-29T04:49:59.278Z,6.20
2023-03-29T04:52:27.370Z,6.20
2023-03-29T04:54:55.400Z,6.00
2023-03-29T04:57:24.807Z,6.00
2023-03-29T04:59:52.844Z,6.10
2023-03-29T05:02:22.095Z,6.10
2023-03-29T05:04:50.613Z,6.20
2023-03-29T05:07:19.485Z,6.10
2023-03-29T05:09:47.605Z,6.10
2023-03-29T05:12:16.107Z,6.20
2023-03-29T05:14:45.767Z,6.30
2023-03-29T05:17:13.831Z,6.30
2023-03-29T05:19:43.395Z,6.30
2023-03-29T05:22:11.685Z,6.20
2023-03-29T05:24:39.799Z,6.20
2023-03-29T05:27:07.757Z,6.40
2023-03-29T05:29:35.847Z,6.50
2023-03-29T05:32:05.445Z,6.50
2023-03-29T05:34:33.584Z,6.40
2023-03-29T05:37:01.630Z,6.50
2023-03-29T05:39:29.814Z,6.40
2023-03-29T05:41:57.780Z,6.30
2023-03-29T05:44:25.901Z,6.30
2023-03-29T05:46:53.905Z,6.20
2023-03-29T05:49:23.318Z,6.10
2023-03-29T05:51:52.058Z,6.00
2023-03-29T05:54:20.174Z,6.00
2023-03-29T05:56:48.163Z,6.00
2023-03-29T05:59:17.658Z,6.10
2023-03-29T06:01:46.989Z,6.10
2023-03-29T06:04:15.631Z,6.20
2023-03-29T06:06:45.239Z,6.20
2023-03-29T06:09:13.422Z,6.30
2023-03-29T06:11:41.496Z,6.30
2023-03-29T06:14:09.591Z,6.30
2023-03-29T06:16:38.080Z,6.30
2023-03-29T06:19:06.796Z,6.20
2023-03-29T06:21:34.921Z,6.00
2023-03-29T06:24:05.165Z,5.90
2023-03-29T06:26:33.586Z,5.90
2023-03-29T06:29:01.640Z,6.00
2023-03-29T06:31:30.126Z,5.90
2023-03-29T06:33:58.756Z,5.80
2023-03-29T06:36:26.968Z,5.60
2023-03-29T06:38:55.407Z,5.60
2023-03-29T06:41:24.772Z,5.60
2023-03-29T06:43:53.606Z,5.70
2023-03-29T06:46:21.596Z,5.70
2023-03-29T06:48:49.821Z,5.80
2023-03-29T06:51:18.007Z,5.90
2023-03-29T06:53:46.300Z,5.80
2023-03-29T06:56:14.674Z,5.80
2023-03-29T06:58:44.976Z,5.70
2023-03-29T07:01:14.135Z,5.80
2023-03-29T07:03:46.021Z,5.70
2023-03-29T07:06:16.715Z,5.70
2023-03-29T07:08:46.840Z,5.70
2023-03-29T07:11:16.349Z,5.50
2023-03-29T07:13:46.290Z,5.50
2023-03-29T07:16:15.132Z,5.60
2023-03-29T07:18:44.940Z,5.50
2023-03-29T07:21:13.929Z,5.50
2023-03-29T07:23:42.548Z,5.60
2023-03-29T07:26:11.151Z,5.70
2023-03-29T07:28:39.907Z,6.00
2023-03-29T07:31:12.436Z,5.90
2023-03-29T07:33:40.918Z,6.20
2023-03-29T07:36:09.923Z,6.40
2023-03-29T07:38:38.440Z,6.40
2023-03-29T07:41:08.738Z,6.20
2023-03-29T07:43:36.961Z,6.10
2023-03-29T07:46:06.725Z,6.00
2023-03-29T07:48:37.216Z,6.00
2023-03-29T07:51:06.163Z,6.00
2023-03-29T07:53:34.435Z,5.90
2023-03-29T07:56:02.410Z,6.10
2023-03-29T07:58:30.576Z,6.00
2023-03-29T08:01:01.392Z,6.00
2023-03-29T08:03:29.811Z,6.10
2023-03-29T08:06:02.397Z,6.20
2023-03-29T08:08:30.453Z,6.20
2023-03-29T08:10:58.483Z,6.30
2023-03-29T08:13:26.678Z,6.30
2023-03-29T08:15:55.581Z,6.40
2023-03-29T08:18:23.695Z,6.50
2023-03-29T08:20:52.623Z,6.50
2023-03-29T08:23:22.710Z,6.70
2023-03-29T08:25:50.966Z,6.40
2023-03-29T08:28:19.047Z,6.50
2023-03-29T08:30:48.144Z,6.40
2023-03-29T08:33:16.852Z,6.50
2023-03-29T08:35:44.947Z,6.60
2023-03-29T08:38:13.097Z,6.50
2023-03-29T08:40:42.659Z,6.50
2023-03-29T08:43:27.181Z,6.40
2023-03-29T08:46:08.473Z,6.40
2023-03-29T08:48:42.181Z,6.50
2023-03-29T08:51:18.431Z,6.50
2023-03-29T08:53:52.556Z,6.50
2023-03-29T08:56:26.224Z,6.60
2023-03-29T08:58:57.487Z,6.70
2023-03-29T09:01:28.970Z,6.70
2023-03-29T09:04:04.997Z,6.80
2023-03-29T09:06:33.835Z,6.90
2023-03-29T09:09:02.373Z,7.10
2023-03-29T09:11:48.018Z,7.20
2023-03-29T09:14:29.932Z,7.20
2023-03-29T09:17:02.270Z,7.30
2023-03-29T09:19:38.797Z,7.40
2023-03-29T09:22:14.172Z,7.50
2023-03-29T09:24:56.411Z,7.60
2023-03-29T09:27:31.055Z,7.60
2023-03-29T09:30:07.591Z,7.80
2023-03-29T09:32:42.384Z,7.90
2023-03-29T09:35:18.868Z,7.90
2023-03-29T09:37:48.579Z,8.00
2023-03-29T09:40:20.964Z,8.10
2023-03-29T09:42:52.385Z,8.20
2023-03-29T09:45:20.511Z,8.30
2023-03-29T09:47:52.771Z,8.40
2023-03-29T09:50:31.442Z,8.50
2023-03-29T09:53:00.605Z,8.60
2023-03-29T09:55:32.359Z,8.60
2023-03-29T09:58:03.205Z,8.70
2023-03-29T10:00:31.184Z,8.80
2023-03-29T10:03:00.309Z,8.80
2023-03-29T10:05:32.109Z,8.80
2023-03-29T10:08:02.227Z,8.80
2023-03-29T10:10:32.485Z,8.90
2023-03-29T10:13:05.661Z,9.00
2023-03-29T10:15:33.822Z,9.10
2023-03-29T10:18:04.159Z,9.10
2023-03-29T10:20:35.430Z,9.10
2023-03-29T10:23:03.416Z,9.20
2023-03-29T10:25:33.900Z,9.30
2023-03-29T10:28:08.299Z,9.30
2023-03-29T10:30:38.641Z,9.40
2023-03-29T10:33:09.066Z,9.50
2023-03-29T10:35:41.657Z,9.60
2023-03-29T10:38:14.964Z,9.70
2023-03-29T10:40:47.512Z,9.80
2023-03-29T10:43:23.354Z,9.80
2023-03-29T10:45:53.770Z,9.80
2023-03-29T10:48:29.054Z,9.80
2023-03-29T10:51:01.199Z,9.90
2023-03-29T10:53:32.646Z,10.00
2023-03-29T10:56:10.355Z,10.10
2023-03-29T10:59:06.125Z,10.20
2023-03-29T11:01:43.791Z,10.30
2023-03-29T11:04:25.419Z,10.40
2023-03-29T11:07:13.734Z,10.40
2023-03-29T11:09:51.556Z,10.50
2023-03-29T11:12:24.168Z,10.60
2023-03-29T11:15:04.685Z,10.70
2023-03-29T11:17:50.839Z,10.70
2023-03-29T11:20:29.426Z,10.80
2023-03-29T11:23:09.125Z,10.90
2023-03-29T11:25:46.452Z,11.00
2023-03-29T11:28:25.572Z,11.00
2023-03-29T11:31:02.433Z,11.10
2023-03-29T11:33:40.975Z,11.20
2023-03-29T11:36:16.749Z,11.30
2023-03-29T11:38:55.710Z,11.40
2023-03-29T11:41:27.758Z,11.40
2023-03-29T11:43:59.907Z,11.50
2023-03-29T11:46:34.375Z,11.50
2023-03-29T11:49:06.231Z,11.50
2023-03-29T11:51:39.193Z,11.50
2023-03-29T11:54:16.559Z,11.50
2023-03-29T11:56:49.188Z,11.60
2023-03-29T11:59:25.581Z,11.70
2023-03-29T12:01:57.601Z,11.70
2023-03-29T12:04:30.792Z,11.80
2023-03-29T12:07:10.293Z,11.90
2023-03-29T12:09:42.264Z,11.90
2023-03-29T12:12:16.544Z,11.90
2023-03-29T12:14:58.057Z,12.00
2023-03-29T12:17:31.929Z,12.00
2023-03-29T12:20:18.403Z,12.10
2023-03-29T12:22:50.966Z,12.20
2023-03-29T12:25:23.330Z,12.20
2023-03-29T12:28:00.883Z,12.20
2023-03-29T12:30:51.799Z,12.30
2023-03-29T12:33:57.445Z,12.30
2023-03-29T12:36:50.734Z,12.40
2023-03-29T12:39:20.504Z,12.40
2023-03-29T12:41:51.776Z,12.50
2023-03-29T12:44:23.623Z,12.60
2023-03-29T12:46:55.068Z,12.60
2023-03-29T12:49:29.444Z,12.70
2023-03-29T12:52:00.111Z,12.80
2023-03-29T12:54:31.784Z,12.80
2023-03-29T12:57:02.269Z,12.90
2023-03-29T12:59:43.036Z,12.90
2023-03-29T13:02:35.350Z,12.90
2023-03-29T13:05:07.572Z,13.00
2023-03-29T13:07:48.107Z,13.10
2023-03-29T13:10:38.438Z,13.10
2023-03-29T13:13:15.549Z,13.20
2023-03-29T13:15:45.763Z,13.20
2023-03-29T13:18:32.291Z,13.30
2023-03-29T13:21:10.678Z,13.30
2023-03-29T13:23:47.839Z,13.40
2023-03-29T13:26:34.652Z,13.40
2023-03-29T13:29:25.401Z,13.50
2023-03-29T13:32:01.827Z,13.60
2023-03-29T13:34:38.263Z,13.70
2023-03-29T13:37:24.060Z,13.80
2023-03-29T13:39:53.898Z,13.90
2023-03-29T13:42:25.942Z,14.00
2023-03-29T13:44:54.250Z,14.00
2023-03-29T13:47:54.914Z,14.00
2023-03-29T13:50:38.964Z,14.00
2023-03-29T13:53:16.516Z,14.10
2023-03-29T13:55:49.317Z,14.10
2023-03-29T13:58:27.416Z,14.10
2023-03-29T14:01:01.942Z,14.20
2023-03-29T14:03:37.519Z,14.30
2023-03-29T14:06:07.986Z,14.30
2023-03-29T14:08:40.959Z,14.40
2023-03-29T14:11:21.034Z,14.50
2023-03-29T14:13:49.180Z,14.50
2023-03-29T14:16:17.274Z,14.70
2023-03-29T14:18:47.849Z,14.70
2023-03-29T14:21:16.455Z,14.80
2023-03-29T14:23:48.194Z,14.80
2023-03-29T14:26:18.621Z,14.90
2023-03-29T14:28:47.573Z,14.90
2023-03-29T14:31:21.105Z,15.00
2023-03-29T14:33:54.005Z,15.10
2023-03-29T14:36:22.695Z,15.00
2023-03-29T14:38:54.822Z,15.00
2023-03-29T14:41:24.449Z,14.90
2023-03-29T14:43:52.652Z,14.80
2023-03-29T14:46:22.738Z,14.80
2023-03-29T14:48:51.067Z,14.80
2023-03-29T14:51:20.366Z,14.90
2023-03-29T14:53:49.469Z,15.00
2023-03-29T14:56:24.059Z,15.00
2023-03-29T14:58:55.806Z,15.20
2023-03-29T15:01:26.800Z,15.30
2023-03-29T15:03:58.069Z,15.50
2023-03-29T15:06:27.367Z,15.70
2023-03-29T15:09:04.865Z,15.80
2023-03-29T15:11:35.961Z,16.00
2023-03-29T15:14:06.025Z,16.00
2023-03-29T15:16:34.445Z,16.00
2023-03-29T15:19:03.614Z,15.90
2023-03-29T15:21:34.907Z,15.90
2023-03-29T15:24:05.125Z,15.90
2023-03-29T15:26:36.093Z,15.80
2023-03-29T15:29:08.640Z,15.80
2023-03-29T15:31:38.792Z,15.70
2023-03-29T15:34:09.580Z,15.70
2023-03-29T15:36:42.221Z,15.70
2023-03-29T15:39:13.131Z,15.60
2023-03-29T15:41:43.326Z,15.50
2023-03-29T15:44:11.902Z,15.50
2023-03-29T15:46:39.867Z,15.50
2023-03-29T15:49:11.969Z,15.40
2023-03-29T15:51:40.600Z,15.40
2023-03-29T15:54:09.310Z,15.40
2023-03-29T15:56:43.765Z,15.30
2023-03-29T15:59:13.923Z,15.30
2023-03-29T16:01:42.114Z,15.20
2023-03-29T16:04:14.107Z,15.20
2023-03-29T16:06:43.051Z,15.10
2023-03-29T16:09:12.935Z,15.10
2023-03-29T16:11:42.222Z,15.00
2023-03-29T16:14:23.078Z,14.90
2023-03-29T16:16:51.413Z,14.90
2023-03-29T16:19:19.747Z,14.80
2023-03-29T16:21:48.116Z,14.70
2023-03-29T16:24:19.711Z,14.60
2023-03-29T16:26:48.499Z,14.50
2023-03-29T16:29:17.298Z,14.50
2023-03-29T16:31:47.837Z,14.40
2023-03-29T16:34:18.798Z,14.30
2023-03-29T16:36:47.699Z,14.30
2023-03-29T16:39:16.090Z,14.20
2023-03-29T16:41:45.194Z,14.20
2023-03-29T16:44:16.576Z,14.20
2023-03-29T16:46:46.095Z,14.00
2023-03-29T16:49:18.035Z,14.00
2023-03-29T16:51:48.207Z,13.90
2023-03-29T16:54:17.265Z,13.80
2023-03-29T16:56:45.450Z,13.80
2023-03-29T16:59:13.612Z,13.70
2023-03-29T17:01:41.747Z,13.70
2023-03-29T17:04:11.580Z,13.70
2023-03-29T17:06:39.640Z,13.50
2023-03-29T17:09:07.855Z,13.50
2023-03-29T17:11:36.064Z,13.50
2023-03-29T17:14:04.104Z,13.40
2023-03-29T17:16:32.460Z,13.40
2023-03-29T17:19:00.930Z,13.40
2023-03-29T17:21:32.375Z,13.30
2023-03-29T17:24:00.353Z,13.30
2023-03-29T17:26:28.331Z,13.20
2023-03-29T17:28:56.391Z,13.10
2023-03-29T17:31:24.534Z,13.10
2023-03-29T17:33:52.747Z,13.00
2023-03-29T17:36:24.129Z,13.00
2023-03-29T17:38:54.758Z,13.00
2023-03-29T17:41:22.918Z,12.90
2023-03-29T17:43:51.478Z,12.90
2023-03-29T17:46:22.836Z,12.90
2023-03-29T17:48:51.765Z,12.80
2023-03-29T17:51:20.088Z,12.80
2023-03-29T17:53:48.298Z,12.80
2023-03-29T17:56:17.676Z,12.70
2023-03-29T17:58:45.638Z,12.60
2023-03-29T18:01:14.647Z,12.60
2023-03-29T18:03:43.364Z,12.60
2023-03-29T18:06:11.579Z,12.60
2023-03-29T18:08:39.969Z,12.50
2023-03-29T18:11:09.812Z,12.50
2023-03-29T18:13:40.037Z,12.40
2023-03-29T18:16:09.513Z,12.40
2023-03-29T18:18:38.596Z,12.30
2023-03-29T18:21:10.184Z,12.30
2023-03-29T18:23:40.570Z,12.30
2023-03-29T18:26:09.501Z,12.20
2023-03-29T18:28:38.834Z,12.20
2023-03-29T18:31:06.861Z,12.20
2023-03-29T18:33:36.197Z,12.10
2023-03-29T18:36:08.438Z,12.10
2023-03-29T18:38:40.410Z,12.10
2023-03-29T18:41:09.455Z,12.00
2023-03-29T18:43:39.757Z,12.00
2023-03-29T18:46:08.325Z,12.00
2023-03-29T18:48:39.124Z,11.90
2023-03-29T18:51:07.859Z,11.90
2023-03-29T18:53:36.232Z,11.90
2023-03-29T18:56:04.937Z,11.90
2023-03-29T18:58:33.119Z,11.80
2023-03-29T19:01:06.986Z,11.70
2023-03-29T19:03:36.317Z,11.70
2023-03-29T19:06:04.974Z,11.70
2023-03-29T19:08:34.439Z,11.70
2023-03-29T19:11:04.374Z,11.70
2023-03-29T19:13:32.642Z,11.70
2023-03-29T19:16:01.173Z,11.60
2023-03-29T19:18:31.125Z,11.50
2023-03-29T19:20:59.154Z,11.50
2023-03-29T19:23:28.440Z,11.60
2023-03-29T19:25:58.114Z,11.50
2023-03-29T19:28:26.657Z,11.50
2023-03-29T19:30:55.465Z,11.50
2023-03-29T19:33:23.867Z,11.40
2023-03-29T19:35:53.316Z,11.40
2023-03-29T19:38:21.994Z,11.40
2023-03-29T19:40:51.363Z,11.30
2023-03-29T19:43:20.937Z,11.30
2023-03-29T19:45:50.731Z,11.30
2023-03-29T19:48:23.477Z,11.20
2023-03-29T19:50:53.390Z,11.20
2023-03-29T19:53:23.222Z,11.20
2023-03-29T19:55:51.413Z,11.20
2023-03-29T19:58:19.354Z,11.20
2023-03-29T20:00:47.733Z,11.10
2023-03-29T20:03:15.827Z,11.10
2023-03-29T20:05:44.106Z,11.10
2023-03-29T20:08:13.462Z,11.10
2023-03-29T20:10:41.526Z,11.10
2023-03-29T20:13:09.661Z,11.10
2023-03-29T20:15:37.671Z,11.00
2023-03-29T20:18:06.340Z,11.00
2023-03-29T20:20:35.709Z,11.10
2023-03-29T20:23:05.426Z,11.10
2023-03-29T20:25:36.307Z,11.10
2023-03-29T20:28:04.777Z,11.10
2023-03-29T20:30:32.916Z,11.00
2023-03-29T20:33:00.930Z,11.10
2023-03-29T20:35:29.177Z,11.10
2023-03-29T20:37:57.160Z,11.10
2023-03-29T20:40:25.166Z,11.10
2023-03-29T20:42:54.692Z,11.10
2023-03-29T20:45:22.986Z,11.10
2023-03-29T20:47:56.223Z,11.00
2023-03-29T20:50:26.860Z,10.90
2023-03-29T20:52:55.278Z,11.00
2023-03-29T20:55:24.004Z,11.00
2023-03-29T20:57:55.066Z,11.10
2023-03-29T21:00:23.861Z,11.10
2023-03-29T21:02:53.009Z,11.10
2023-03-29T21:05:21.155Z,11.10
2023-03-29T21:07:49.222Z,11.20
2023-03-29T21:10:17.810Z,11.20
2023-03-29T21:12:45.885Z,11.10
2023-03-29T21:15:17.793Z,11.00
2023-03-29T21:17:46.169Z,11.00
2023-03-29T21:20:15.198Z,10.90
2023-03-29T21:22:44.063Z,10.80
2023-03-29T21:25:15.580Z,10.90
2023-03-29T21:27:43.765Z,11.00
2023-03-29T21:30:12.461Z,11.10
2023-03-29T21:32:41.955Z,11.10
2023-03-29T21:35:11.237Z,11.10
2023-03-29T21:37:39.425Z,11.00
2023-03-29T21:40:09.288Z,11.00
2023-03-29T21:42:37.362Z,11.10
2023-03-29T21:45:06.173Z,11.10
2023-03-29T21:47:34.233Z,11.10
2023-03-29T21:50:03.621Z,11.10
2023-03-29T21:52:31.815Z,11.10
2023-03-29T21:54:59.836Z,11.00
2023-03-29T21:57:27.941Z,11.00
2023-03-29T21:59:56.034Z,11.00
2023-03-29T22:02:24.520Z,11.00
2023-03-29T22:05:36.845Z,11.00
2023-03-29T22:08:06.725Z,10.90
2023-03-29T22:10:34.726Z,10.90
2023-03-29T22:13:03.416Z,10.90
2023-03-29T22:15:35.621Z,10.80
2023-03-29T22:18:03.945Z,10.80
2023-03-29T22:20:35.628Z,10.80
2023-03-29T22:23:06.064Z,10.80
2023-03-29T22:25:34.003Z,10.70
2023-03-29T22:28:02.067Z,10.70
2023-03-29T22:30:30.120Z,10.70
2023-03-29T22:32:58.153Z,10.60
2023-03-29T22:35:26.206Z,10.70
2023-03-29T22:37:54.361Z,10.70
2023-03-29T22:40:23.869Z,10.70
2023-03-29T22:42:51.931Z,10.70
2023-03-29T22:45:20.719Z,10.70
2023-03-29T22:47:48.811Z,10.70
2023-03-29T22:50:17.304Z,10.60
2023-03-29T22:52:45.726Z,10.60
2023-03-29T22:55:13.689Z,10.60
2023-03-29T22:57:43.716Z,10.70
2023-03-29T23:00:13.257Z,10.60
2023-03-29T23:02:41.814Z,10.60
2023-03-29T23:05:10.007Z,10.60
2023-03-29T23:07:38.062Z,10.50
2023-03-29T23:10:07.578Z,10.50
2023-03-29T23:12:36.711Z,10.50
2023-03-29T23:15:08.145Z,10.50
2023-03-29T23:17:37.215Z,10.60
2023-03-29T23:20:07.135Z,10.60
2023-03-29T23:22:36.458Z,10.60
2023-03-29T23:25:04.619Z,10.60
2023-03-29T23:27:33.174Z,10.50
2023-03-29T23:30:01.754Z,10.50
2023-03-29T23:32:31.163Z,10.50
2023-03-29T23:35:00.157Z,10.30
2023-03-29T23:37:28.189Z,10.10
2023-03-29T23:39:56.199Z,10.10
2023-03-29T23:42:24.208Z,10.10
2023-03-29T23:44:52.338Z,9.90
2023-03-29T23:47:20.847Z,10.00
2023-03-29T23:49:50.705Z,10.00
2023-03-29T23:52:18.992Z,9.90
2023-03-29T23:54:46.952Z,9.80
2023-03-29T23:57:15.407Z,9.80
2023-03-29T23:59:43.368Z,9.90
